Latest Coastal Weather Observations for Cape Nelson

IDV60701

Issued at 6:51 am EST Thursday 26 May 2016 (issued every 10 minutes, with the page automatically refreshed every 10 minutes)

About coastal observations | Map of coastal stations | Coastal observations for VIC | Marine services | Other Formats
Station Details ID: 090184 Name: CAPE NELSON LIGHTHOUSE Lat: -38.43 Lon: 141.54 Height: 45.4 m
Data from the previous 72 hours. | See also: Recent months at Cape Nelson
Date/Time
EST
Temp

°C
Wind Pressure Rain
since 9am
mm
Weather Cloud Vis
km
Sea
Height
m
Swell
Dir
 
Speed
knots
Gust
knots
hPa Trend Height
m
Period
s
Dir
26/06:30am 11.4 WNW 4 10 1004.7 - 13.0 - - - - - - -
26/06:00am 11.4 S 11 15 1004.8 - 12.8 Rain - - - - - -
26/05:37am 11.8 S 14 25 1004.7 - 12.4 - - - - - - -
26/05:30am 12.5 S 8 13 1004.7 - 12.4 - - - - - - -
26/05:00am 11.9 SE 9 16 1004.4 - 12.4 - - - - - - -
26/04:30am 12.0 SE 12 22 1004.0 - 12.4 - - - - - - -
26/04:00am 12.8 S 13 18 1004.3 - 12.4 - - - - - - -
26/03:30am 12.7 S 12 15 1004.2 - 12.4 - - - - - - -
26/03:00am 12.5 S 11 15 1004.4 - 12.4 - - - - - - -
26/02:30am 12.1 SW 3 6 1004.3 - 12.4 - - - - - - -
26/02:00am 11.5 NW 1 4 1004.4 - 12.4 - - - - - - -
26/01:30am 11.6 NW 5 6 1004.7 - 12.4 - - - - - - -
26/01:00am 11.5 NNW 5 6 1005.0 - 12.4 - - - - - - -
26/12:30am 11.4 NW 5 6 1005.0 - 12.2 - - - - - - -
26/12:00am 11.4 NW 5 6 1005.0 - 12.2 Rain - - - - - -
 
Date/Time
EST
Temp

°C
Wind Pressure Rain
since 9am
mm
Weather Cloud Vis
km
Sea
Height
m
Swell
Dir
 
Speed
knots
Gust
knots
hPa Trend Height
m
Period
s
Dir
25/11:30pm 11.3 NW 7 10 1005.2 - 11.8 - - - - - - -
25/11:00pm 11.3 NNW 9 12 1005.2 - 11.6 - - - - - - -
25/10:30pm 11.3 NNW 10 15 1005.8 - 11.6 - - - - - - -
25/10:00pm 11.2 NNW 9 12 1005.7 - 11.6 - - - - - - -
25/09:30pm 11.2 NNW 11 15 1005.9 - 11.4 - - - - - - -
25/09:00pm 11.2 NNW 12 18 1005.7 - 11.2 Rain - - - - - -
25/08:30pm 11.2 NNW 11 17 1005.6 - 9.2 - - - - - - -
25/08:00pm 11.2 NNW 13 19 1005.4 - 8.2 - - - - - - -
25/07:30pm 11.1 NNW 14 21 1005.5 - 7.8 - - - - - - -
25/07:00pm 11.1 NNW 15 20 1005.2 - 7.6 - - - - - - -
25/06:30pm 11.0 NNW 13 20 1005.1 - 7.6 - - - - - - -
25/06:00pm 10.9 NNW 14 20 1005.0 - 7.6 Recent precip. - - - - - -
25/05:30pm 10.9 N 15 21 1005.0 - 7.4 - - - - - - -
25/05:00pm 11.0 NNW 14 20 1005.2 - 6.2 - - - - - - -
25/04:30pm 11.0 NNW 13 17 1005.3 - 4.4 - - - - - - -
25/04:00pm 11.2 NNW 13 18 1005.6 - 4.0 - - - - - - -
25/03:30pm 11.2 NW 12 19 1006.1 - 2.8 - - - - - - -
25/03:00pm 11.2 NNW 14 19 1005.9 - 1.8 Recent precip. - - - - - -
25/02:30pm 11.3 NNW 12 18 1005.9 - 1.6 - - - - - - -
25/02:00pm 11.4 NNW 14 21 1006.0 - 1.4 - - - - - - -
25/01:30pm 11.2 N 16 24 1006.1 - 1.4 - - - - - - -
25/01:00pm 11.5 NNW 15 23 1006.7 - 1.0 - - - - - - -
25/12:30pm 12.3 NNW 13 19 1007.1 - 0.4 - - - - - - -
25/12:03pm 13.0 NNW 15 25 1007.4 - 0.0 - - - - - - -
25/12:00pm 13.1 NNW 14 22 1007.4 - 0.0 - - - - - - -
25/11:30am 13.0 NNW 15 23 1008.2 - 0.0 - - - - - - -
25/11:00am 12.8 NNW 16 22 1008.8 - 0.0 - - - - - - -
25/10:30am 12.9 NNW 18 25 1008.6 - 0.0 - - - - - - -
25/10:00am 13.4 NNW 16 28 1008.8 - 0.0 - - - - - - -
25/09:52am 13.5 NNW 18 28 1008.9 - 0.0 - - - - - - -
25/09:30am 13.5 NNW 16 23 1008.6 - 0.0 - - - - - - -
25/09:19am 13.5 NNW 16 27 1008.6 - 0.0 - - - - - - -
25/09:00am 13.3 NNW 16 25 1008.9 - 0.0 - - - - - - -
25/08:30am 13.0 N 15 21 1009.0 - 0.0 - - - - - - -
25/08:03am 13.0 NNW 16 26 1009.5 - 0.0 - - - - - - -
25/08:00am 13.0 NNW 15 21 1009.5 - 0.0 - - - - - - -
25/07:49am 13.1 N 16 26 1009.4 - 0.0 - - - - - - -
25/07:30am 13.0 N 15 24 1009.3 - 0.0 - - - - - - -
25/07:00am 12.7 N 14 24 1009.6 - 0.0 - - - - - - -
25/06:30am 12.5 N 14 21 1010.1 - 0.0 - - - - - - -
25/06:00am 12.4 N 13 20 1010.4 - 0.0 - - - - - - -
25/05:30am 12.3 N 14 21 1010.6 - 0.0 - - - - - - -
25/05:00am 12.2 N 14 20 1010.9 - 0.0 - - - - - - -
25/04:37am 12.0 N 15 25 1011.2 - 0.0 - - - - - - -
25/04:30am 11.9 N 14 21 1011.3 - 0.0 - - - - - - -
25/04:00am 11.9 N 14 21 1011.8 - 0.0 - - - - - - -
25/03:30am 11.9 N 12 16 1012.0 - 0.0 - - - - - - -
25/03:00am 11.8 N 11 16 1012.6 - 0.0 - - - - - - -
25/02:30am 11.8 N 11 15 1013.2 - 0.0 - - - - - - -
25/02:00am 11.9 N 12 18 1013.6 - 0.0 - - - - - - -
25/01:30am 12.1 N 11 16 1013.8 - 0.0 - - - - - - -
25/01:00am 12.4 N 12 17 1014.6 - 0.0 - - - - - - -
25/12:30am 12.3 N 11 17 1015.2 - 0.0 - - - - - - -
25/12:00am 12.5 N 11 16 1015.5 - 0.0 - - - - - - -
 
Date/Time
EST
Temp

°C
Wind Pressure Rain
since 9am
mm
Weather Cloud Vis
km
Sea
Height
m
Swell
Dir
 
Speed
knots
Gust
knots
hPa Trend Height
m
Period
s
Dir
24/11:30pm 12.7 N 10 13 1015.7 - 0.0 - - - - - - -
24/11:00pm 12.5 N 9 12 1016.2 - 0.0 - - - - - - -
24/10:30pm 12.2 N 7 9 1016.5 - 0.0 - - - - - - -
24/10:00pm 12.4 N 8 11 1016.7 - 0.0 - - - - - - -
24/09:30pm 12.3 N 7 10 1017.0 - 0.0 - - - - - - -
24/09:00pm 12.5 N 7 8 1017.5 - 0.0 - - - - - - -
24/08:30pm 12.7 NNE 7 10 1017.4 - 0.0 - - - - - - -
24/08:00pm 13.0 NNE 6 8 1017.6 - 0.0 - - - - - - -
24/07:30pm 13.4 N 5 7 1017.9 - 0.0 - - - - - - -
24/07:00pm 13.4 NNE 6 8 1017.9 - 0.0 - - - - - - -
24/06:30pm 12.7 NNE 5 7 1018.0 - 0.0 - - - - - - -
24/06:00pm 12.7 NNE 6 7 1018.0 - 0.0 - - - - - - -
24/05:30pm 13.5 N 5 6 1018.2 - 0.0 - - - - - - -
24/05:00pm 15.0 NW 2 4 1018.2 - 0.0 - - - - - - -
24/04:30pm 15.9 WNW 3 5 1018.4 - 0.0 - - - - - - -
24/04:00pm 15.8 WNW 5 7 1018.4 - 0.0 - - - - - - -
24/03:30pm 16.3 WNW 7 9 1018.5 - 0.0 - - - - - - -
24/03:00pm 17.0 NW 9 12 1018.4 - 0.0 - - - - - - -
24/02:30pm 16.5 NW 10 13 1018.5 - 0.0 - - - - - - -
24/02:00pm 16.5 WNW 7 10 1018.9 - 0.0 - - - - - - -
24/01:30pm 16.2 WNW 9 12 1019.3 - 0.0 - - - - - - -
24/01:00pm 16.0 W 7 9 1019.4 - 0.0 - - - - - - -
24/12:30pm 16.0 W 6 8 1019.5 - 0.0 - - - - - - -
24/12:00pm 16.0 WNW 7 9 1020.1 - 0.0 - - - - - - -
24/11:30am 16.0 WNW 7 9 1020.8 - 0.0 - - - - - - -
24/11:00am 16.0 NW 7 10 1020.9 - 0.0 - - - - - - -
24/10:30am 15.1 WNW 7 10 1021.0 - 0.0 - - - - - - -
24/10:00am 14.8 W 7 11 1021.2 - 0.0 - - - - - - -
24/09:30am 14.3 W 6 10 1021.3 - 0.0 - - - - - - -
24/09:00am 14.0 W 8 11 1021.2 - 1.0 - - - - - - -
24/08:30am 13.6 WNW 7 10 1021.2 - 1.0 - - - - - - -
24/08:00am 13.6 W 8 13 1021.0 - 1.0 - - - - - - -
24/07:30am 13.6 WNW 10 15 1020.9 - 1.0 - - - - - - -
24/07:00am 13.7 NW 7 13 1020.8 - 1.0 - - - - - - -
24/06:30am 13.5 WNW 9 15 1020.5 - 1.0 - - - - - - -
24/06:00am 13.4 NW 9 16 1020.1 - 1.0 - - - - - - -
24/05:30am 13.3 N 8 13 1019.9 - 1.0 - - - - - - -
24/05:00am 13.8 WNW 9 16 1019.9 - 1.0 - - - - - - -
24/04:30am 13.6 WNW 11 17 1019.8 - 1.0 - - - - - - -
24/04:00am 13.6 WNW 10 18 1019.7 - 1.0 - - - - - - -
24/03:30am 13.6 WNW 9 15 1019.8 - 1.0 - - - - - - -
24/03:00am 13.6 NNW 9 16 1019.8 - 1.0 - - - - - - -
24/02:30am 13.9 W 17 23 1019.9 - 1.0 - - - - - - -
24/02:00am 14.0 W 16 22 1019.6 - 1.0 - - - - - - -
24/01:30am 13.9 W 15 21 1019.4 - 1.0 - - - - - - -
24/01:00am 14.1 W 15 24 1019.5 - 1.0 - - - - - - -
24/12:30am 14.4 W 20 28 1019.6 - 1.0 - - - - - - -
24/12:00am 14.4 W 21 27 1019.7 - 1.0 - - - - - - -
 
Date/Time
EST
Temp

°C
Wind Pressure Rain
since 9am
mm
Weather Cloud Vis
km
Sea
Height
m
Swell
Dir
 
Speed
knots
Gust
knots
hPa Trend Height
m
Period
s
Dir
23/11:30pm 14.4 W 19 28 1019.7 - 1.0 - - - - - - -
23/11:26pm 14.4 W 18 28 1019.7 - 1.0 - - - - - - -
23/11:00pm 14.4 W 18 23 1019.8 - 1.0 - - - - - - -
23/10:30pm 14.4 W 19 27 1019.9 - 1.0 - - - - - - -
23/10:00pm 14.5 W 19 28 1019.8 - 1.0 - - - - - - -
23/09:51pm 14.4 W 17 28 1019.7 - 1.0 - - - - - - -
23/09:30pm 14.3 WNW 14 23 1019.5 - 1.0 - - - - - - -
23/09:00pm 14.4 W 19 25 1019.6 - 1.0 - - - - - - -
23/08:30pm 14.3 W 19 24 1019.5 - 1.0 - - - - - - -
23/08:00pm 14.2 W 20 25 1019.3 - 1.0 - - - - - - -
23/07:30pm 14.0 W 17 24 1019.1 - 1.0 - - - - - - -
23/07:03pm 13.9 W 17 27 1018.9 - 1.0 - - - - - - -
23/07:00pm 13.9 W 17 23 1018.8 - 1.0 - - - - - - -
23/06:30pm 14.1 W 21 29 1018.6 - 1.0 - - - - - - -
23/06:05pm 13.9 W 19 29 1018.2 - 1.0 - - - - - - -
23/06:00pm 14.0 W 21 29 1018.3 - 1.0 - - - - - - -
23/05:30pm 14.0 W 20 27 1018.1 - 1.0 - - - - - - -
23/05:03pm 13.9 W 18 28 1017.7 - 1.0 - - - - - - -
23/05:00pm 14.0 W 19 28 1017.6 - 1.0 - - - - - - -
23/04:34pm 13.7 W 17 27 1017.4 - 1.0 - - - - - - -
23/04:30pm 13.6 W 17 27 1017.3 - 1.0 - - - - - - -
23/04:24pm 13.5 W 15 26 1017.4 - 1.0 - - - - - - -
23/04:00pm 12.9 NW 12 21 1017.1 - 1.0 - - - - - - -
23/03:30pm 14.6 W 19 26 1016.8 - 1.0 - - - - - - -
23/03:00pm 14.2 W 21 29 1016.7 - 1.0 - - - - - - -
23/02:30pm 14.1 W 17 27 1016.8 - 1.0 - - - - - - -
23/02:07pm 13.9 W 18 28 1016.7 - 1.0 - - - - - - -
23/02:00pm 13.7 WNW 19 24 1016.8 - 1.0 - - - - - - -
23/01:41pm 13.6 W 16 26 1016.8 - 1.0 - - - - - - -
23/01:30pm 13.5 WNW 17 23 1016.9 - 1.0 - - - - - - -
23/01:01pm 12.7 W 17 27 1017.2 - 1.0 - - - - - - -
23/01:00pm 12.6 W 18 27 1017.2 - 1.0 - - - - - - -
23/12:45pm 13.5 W 15 25 1017.1 - 0.6 - - - - - - -
23/12:30pm 12.7 W 20 28 1017.2 - 0.6 - - - - - - -
23/12:05pm 14.0 W 15 25 1017.2 - 0.0 - - - - - - -
23/12:00pm 14.0 W 17 23 1017.2 - 0.0 - - - - - - -
23/11:40am 13.6 W 15 25 1017.5 - 0.0 - - - - - - -
23/11:30am 13.4 W 16 22 1017.5 - 0.0 - - - - - - -
23/11:06am 14.0 W 15 25 1017.6 - 0.0 - - - - - - -
23/11:00am 13.8 W 16 23 1017.5 - 0.0 - - - - - - -
23/10:30am 13.7 W 15 21 1017.3 - 0.0 - - - - - - -
23/10:00am 13.2 W 20 31 1017.2 - 0.0 - - - - - - -
23/09:35am 13.6 W 16 26 1017.1 - 0.0 - - - - - - -
23/09:30am 13.6 W 18 27 1017.1 - 0.0 - - - - - - -
23/09:00am 12.6 W 24 38 1016.8 - 12.8 - - - - - - -
23/08:30am 13.6 W 26 36 1016.1 - 12.8 - - - - - - -
23/08:00am 13.4 W 24 34 1015.8 - 12.8 - - - - - - -
23/07:52am 13.3 W 25 35 1015.7 - 12.8 - - - - - - -
23/07:30am 13.3 W 26 35 1015.3 - 12.8 - - - - - - -
23/07:24am 13.4 W 24 35 1015.2 - 12.8 - - - - - - -
23/07:00am 13.4 W 26 35 1014.4 - 12.8 - - - - - - -

Other Formats:

Comma delimited format used in spreadsheet applications
http://www.bom.gov.au/fwo/IDV60701/IDV60701.94826.axf

JavaScript Object Notation format (JSON) in row-major order
http://www.bom.gov.au/fwo/IDV60701/IDV60701.94826.json